sensor_id;sensor_type;location;lat;lon;timestamp;P1;durP1;ratioP1;P2;durP2;ratioP2
39020;SDS011;25188;51.958;5.842;2023-01-05T00:00:53;36.60;;;5.90;;
39020;SDS011;25188;51.958;5.842;2023-01-05T00:03:19;38.80;;;5.50;;
39020;SDS011;25188;51.958;5.842;2023-01-05T00:05:45;35.03;;;5.27;;
39020;SDS011;25188;51.958;5.842;2023-01-05T00:08:11;29.92;;;5.20;;
39020;SDS011;25188;51.958;5.842;2023-01-05T00:10:37;32.80;;;5.18;;
39020;SDS011;25188;51.958;5.842;2023-01-05T00:13:25;44.90;;;6.97;;
39020;SDS011;25188;51.958;5.842;2023-01-05T00:16:10;34.15;;;6.10;;
39020;SDS011;25188;51.958;5.842;2023-01-05T00:18:55;34.50;;;4.87;;
39020;SDS011;25188;51.958;5.842;2023-01-05T00:21:39;33.88;;;6.18;;
39020;SDS011;25188;51.958;5.842;2023-01-05T00:24:24;41.77;;;5.77;;
39020;SDS011;25188;51.958;5.842;2023-01-05T00:26:50;25.33;;;4.37;;
39020;SDS011;25188;51.958;5.842;2023-01-05T00:29:15;42.63;;;5.93;;
39020;SDS011;25188;51.958;5.842;2023-01-05T00:31:41;45.83;;;6.57;;
39020;SDS011;25188;51.958;5.842;2023-01-05T00:34:07;35.17;;;5.67;;
39020;SDS011;25188;51.958;5.842;2023-01-05T00:36:32;37.20;;;6.37;;
39020;SDS011;25188;51.958;5.842;2023-01-05T00:38:58;28.57;;;5.83;;
39020;SDS011;25188;51.958;5.842;2023-01-05T00:41:23;37.93;;;5.60;;
39020;SDS011;25188;51.958;5.842;2023-01-05T00:43:49;30.27;;;5.33;;
39020;SDS011;25188;51.958;5.842;2023-01-05T00:46:15;28.57;;;4.73;;
39020;SDS011;25188;51.958;5.842;2023-01-05T00:48:40;33.43;;;6.23;;
39020;SDS011;25188;51.958;5.842;2023-01-05T00:51:06;35.77;;;7.20;;
39020;SDS011;25188;51.958;5.842;2023-01-05T00:53:31;25.80;;;5.40;;
39020;SDS011;25188;51.958;5.842;2023-01-05T00:55:57;31.80;;;5.40;;
39020;SDS011;25188;51.958;5.842;2023-01-05T00:58:23;33.27;;;5.13;;
39020;SDS011;25188;51.958;5.842;2023-01-05T01:00:49;30.40;;;5.47;;
39020;SDS011;25188;51.958;5.842;2023-01-05T01:03:14;28.00;;;5.00;;
39020;SDS011;25188;51.958;5.842;2023-01-05T01:05:40;39.17;;;7.60;;
39020;SDS011;25188;51.958;5.842;2023-01-05T01:08:06;32.73;;;5.10;;
39020;SDS011;25188;51.958;5.842;2023-01-05T01:10:32;38.20;;;8.10;;
39020;SDS011;25188;51.958;5.842;2023-01-05T01:12:57;40.03;;;6.43;;
39020;SDS011;25188;51.958;5.842;2023-01-05T01:15:23;38.70;;;6.57;;
39020;SDS011;25188;51.958;5.842;2023-01-05T01:17:49;35.80;;;6.40;;
39020;SDS011;25188;51.958;5.842;2023-01-05T01:20:15;39.73;;;5.80;;
39020;SDS011;25188;51.958;5.842;2023-01-05T01:22:40;36.73;;;6.03;;
39020;SDS011;25188;51.958;5.842;2023-01-05T01:25:06;52.97;;;9.00;;
39020;SDS011;25188;51.958;5.842;2023-01-05T01:27:32;44.80;;;6.27;;
39020;SDS011;25188;51.958;5.842;2023-01-05T01:29:58;43.60;;;6.77;;
39020;SDS011;25188;51.958;5.842;2023-01-05T01:32:23;35.13;;;5.83;;
39020;SDS011;25188;51.958;5.842;2023-01-05T01:34:49;37.27;;;6.03;;
39020;SDS011;25188;51.958;5.842;2023-01-05T01:37:15;29.87;;;6.13;;
39020;SDS011;25188;51.958;5.842;2023-01-05T01:39:41;27.00;;;5.70;;
39020;SDS011;25188;51.958;5.842;2023-01-05T01:42:13;27.53;;;5.50;;
39020;SDS011;25188;51.958;5.842;2023-01-05T01:44:59;36.38;;;5.35;;
39020;SDS011;25188;51.958;5.842;2023-01-05T01:47:28;30.90;;;5.13;;
39020;SDS011;25188;51.958;5.842;2023-01-05T01:50:04;36.13;;;5.80;;
39020;SDS011;25188;51.958;5.842;2023-01-05T01:52:43;31.23;;;5.45;;
39020;SDS011;25188;51.958;5.842;2023-01-05T01:55:12;44.87;;;7.30;;
39020;SDS011;25188;51.958;5.842;2023-01-05T01:57:38;44.93;;;7.00;;
39020;SDS011;25188;51.958;5.842;2023-01-05T02:00:06;32.50;;;5.23;;
39020;SDS011;25188;51.958;5.842;2023-01-05T02:02:34;42.67;;;7.10;;
39020;SDS011;25188;51.958;5.842;2023-01-05T02:05:01;38.97;;;6.50;;
39020;SDS011;25188;51.958;5.842;2023-01-05T02:07:35;38.30;;;5.70;;
39020;SDS011;25188;51.958;5.842;2023-01-05T02:10:03;36.97;;;5.30;;
39020;SDS011;25188;51.958;5.842;2023-01-05T02:19:12;39.23;;;5.63;;
39020;SDS011;25188;51.958;5.842;2023-01-05T02:27:58;48.50;;;6.63;;
39020;SDS011;25188;51.958;5.842;2023-01-05T02:41:51;27.50;;;5.47;;
39020;SDS011;25188;51.958;5.842;2023-01-05T02:44:36;37.47;;;5.73;;
39020;SDS011;25188;51.958;5.842;2023-01-05T02:47:04;41.83;;;5.27;;
39020;SDS011;25188;51.958;5.842;2023-01-05T02:49:34;28.20;;;5.47;;
39020;SDS011;25188;51.958;5.842;2023-01-05T02:52:04;36.90;;;6.50;;
39020;SDS011;25188;51.958;5.842;2023-01-05T02:54:37;32.90;;;5.83;;
39020;SDS011;25188;51.958;5.842;2023-01-05T02:57:14;42.53;;;6.57;;
39020;SDS011;25188;51.958;5.842;2023-01-05T02:59:48;47.03;;;6.53;;
39020;SDS011;25188;51.958;5.842;2023-01-05T03:02:21;25.93;;;4.53;;
39020;SDS011;25188;51.958;5.842;2023-01-05T03:04:55;38.05;;;5.63;;
39020;SDS011;25188;51.958;5.842;2023-01-05T03:07:31;41.67;;;6.68;;
39020;SDS011;25188;51.958;5.842;2023-01-05T03:09:59;33.17;;;6.13;;
39020;SDS011;25188;51.958;5.842;2023-01-05T03:12:45;35.57;;;5.60;;
39020;SDS011;25188;51.958;5.842;2023-01-05T03:15:32;34.27;;;6.37;;
39020;SDS011;25188;51.958;5.842;2023-01-05T03:18:05;29.80;;;6.00;;
39020;SDS011;25188;51.958;5.842;2023-01-05T03:20:33;39.83;;;5.57;;
39020;SDS011;25188;51.958;5.842;2023-01-05T03:23:02;31.77;;;5.43;;
39020;SDS011;25188;51.958;5.842;2023-01-05T03:25:50;35.73;;;6.37;;
39020;SDS011;25188;51.958;5.842;2023-01-05T03:31:47;32.80;;;5.45;;
39020;SDS011;25188;51.958;5.842;2023-01-05T03:35:09;30.40;;;5.10;;
39020;SDS011;25188;51.958;5.842;2023-01-05T03:40:29;29.50;;;4.77;;
39020;SDS011;25188;51.958;5.842;2023-01-05T03:42:57;30.63;;;5.93;;
39020;SDS011;25188;51.958;5.842;2023-01-05T03:45:24;33.93;;;5.30;;
39020;SDS011;25188;51.958;5.842;2023-01-05T03:47:56;30.83;;;4.78;;
39020;SDS011;25188;51.958;5.842;2023-01-05T03:50:22;30.43;;;5.57;;
39020;SDS011;25188;51.958;5.842;2023-01-05T03:52:47;37.60;;;5.20;;
39020;SDS011;25188;51.958;5.842;2023-01-05T03:55:13;39.93;;;6.83;;
39020;SDS011;25188;51.958;5.842;2023-01-05T03:57:39;25.70;;;4.20;;
39020;SDS011;25188;51.958;5.842;2023-01-05T04:00:04;41.03;;;5.70;;
39020;SDS011;25188;51.958;5.842;2023-01-05T04:02:31;32.30;;;5.17;;
39020;SDS011;25188;51.958;5.842;2023-01-05T04:04:56;35.37;;;5.60;;
39020;SDS011;25188;51.958;5.842;2023-01-05T04:07:22;41.27;;;6.47;;
39020;SDS011;25188;51.958;5.842;2023-01-05T04:09:48;30.07;;;6.37;;
39020;SDS011;25188;51.958;5.842;2023-01-05T04:12:13;33.70;;;5.20;;
39020;SDS011;25188;51.958;5.842;2023-01-05T04:14:39;32.47;;;4.70;;
39020;SDS011;25188;51.958;5.842;2023-01-05T04:17:04;33.50;;;5.40;;
39020;SDS011;25188;51.958;5.842;2023-01-05T04:19:30;33.60;;;6.17;;
39020;SDS011;25188;51.958;5.842;2023-01-05T04:21:56;41.33;;;6.33;;
39020;SDS011;25188;51.958;5.842;2023-01-05T04:24:21;23.97;;;4.20;;
39020;SDS011;25188;51.958;5.842;2023-01-05T04:26:47;27.37;;;5.33;;
39020;SDS011;25188;51.958;5.842;2023-01-05T04:29:13;36.27;;;5.70;;
39020;SDS011;25188;51.958;5.842;2023-01-05T04:31:38;28.23;;;5.63;;
39020;SDS011;25188;51.958;5.842;2023-01-05T04:34:04;29.47;;;4.57;;
39020;SDS011;25188;51.958;5.842;2023-01-05T04:36:30;34.03;;;4.10;;
39020;SDS011;25188;51.958;5.842;2023-01-05T04:38:55;29.33;;;4.73;;
39020;SDS011;25188;51.958;5.842;2023-01-05T04:41:21;38.07;;;5.63;;
39020;SDS011;25188;51.958;5.842;2023-01-05T04:43:46;29.37;;;4.80;;
39020;SDS011;25188;51.958;5.842;2023-01-05T04:46:12;32.27;;;4.47;;
39020;SDS011;25188;51.958;5.842;2023-01-05T04:48:38;38.60;;;5.93;;
39020;SDS011;25188;51.958;5.842;2023-01-05T04:51:03;34.47;;;4.47;;
39020;SDS011;25188;51.958;5.842;2023-01-05T04:53:29;37.87;;;5.87;;
39020;SDS011;25188;51.958;5.842;2023-01-05T04:55:57;34.30;;;4.43;;
39020;SDS011;25188;51.958;5.842;2023-01-05T04:58:23;26.90;;;5.37;;
39020;SDS011;25188;51.958;5.842;2023-01-05T05:00:48;32.20;;;5.53;;
39020;SDS011;25188;51.958;5.842;2023-01-05T05:03:14;29.90;;;4.20;;
39020;SDS011;25188;51.958;5.842;2023-01-05T05:05:40;26.85;;;3.67;;
39020;SDS011;25188;51.958;5.842;2023-01-05T05:08:06;35.93;;;4.67;;
39020;SDS011;25188;51.958;5.842;2023-01-05T05:10:32;30.97;;;5.13;;
39020;SDS011;25188;51.958;5.842;2023-01-05T05:12:57;31.77;;;5.13;;
39020;SDS011;25188;51.958;5.842;2023-01-05T05:15:23;27.50;;;4.90;;
39020;SDS011;25188;51.958;5.842;2023-01-05T05:17:49;30.67;;;6.50;;
39020;SDS011;25188;51.958;5.842;2023-01-05T05:20:15;29.00;;;4.50;;
39020;SDS011;25188;51.958;5.842;2023-01-05T05:22:40;37.97;;;5.30;;
39020;SDS011;25188;51.958;5.842;2023-01-05T05:25:06;30.07;;;4.83;;
39020;SDS011;25188;51.958;5.842;2023-01-05T05:27:32;30.90;;;5.23;;
39020;SDS011;25188;51.958;5.842;2023-01-05T05:29:58;27.10;;;4.73;;
39020;SDS011;25188;51.958;5.842;2023-01-05T05:32:23;31.40;;;5.73;;
39020;SDS011;25188;51.958;5.842;2023-01-05T05:34:49;36.90;;;4.70;;
39020;SDS011;25188;51.958;5.842;2023-01-05T05:37:15;28.73;;;5.38;;
39020;SDS011;25188;51.958;5.842;2023-01-05T05:39:40;30.25;;;4.75;;
39020;SDS011;25188;51.958;5.842;2023-01-05T05:42:06;32.67;;;5.37;;
39020;SDS011;25188;51.958;5.842;2023-01-05T05:44:31;27.87;;;4.10;;
39020;SDS011;25188;51.958;5.842;2023-01-05T05:46:57;30.17;;;4.70;;
39020;SDS011;25188;51.958;5.842;2023-01-05T05:49:23;38.28;;;5.38;;
39020;SDS011;25188;51.958;5.842;2023-01-05T05:51:48;30.73;;;5.90;;
39020;SDS011;25188;51.958;5.842;2023-01-05T05:54:14;39.67;;;5.67;;
39020;SDS011;25188;51.958;5.842;2023-01-05T05:56:40;30.60;;;5.00;;
39020;SDS011;25188;51.958;5.842;2023-01-05T05:59:05;30.70;;;4.73;;
39020;SDS011;25188;51.958;5.842;2023-01-05T06:01:31;36.07;;;5.60;;
39020;SDS011;25188;51.958;5.842;2023-01-05T06:03:57;29.60;;;4.73;;
39020;SDS011;25188;51.958;5.842;2023-01-05T06:06:22;35.87;;;5.87;;
39020;SDS011;25188;51.958;5.842;2023-01-05T06:08:48;37.03;;;5.20;;
39020;SDS011;25188;51.958;5.842;2023-01-05T06:11:14;28.60;;;6.17;;
39020;SDS011;25188;51.958;5.842;2023-01-05T06:13:39;32.15;;;5.38;;
39020;SDS011;25188;51.958;5.842;2023-01-05T06:16:05;31.20;;;4.73;;
39020;SDS011;25188;51.958;5.842;2023-01-05T06:18:31;45.47;;;6.67;;
39020;SDS011;25188;51.958;5.842;2023-01-05T06:20:56;30.52;;;4.35;;
39020;SDS011;25188;51.958;5.842;2023-01-05T06:23:22;25.67;;;5.00;;
39020;SDS011;25188;51.958;5.842;2023-01-05T06:25:48;34.53;;;5.07;;
39020;SDS011;25188;51.958;5.842;2023-01-05T06:28:13;28.40;;;4.33;;
39020;SDS011;25188;51.958;5.842;2023-01-05T06:30:39;34.40;;;5.27;;
39020;SDS011;25188;51.958;5.842;2023-01-05T06:33:05;32.17;;;6.10;;
39020;SDS011;25188;51.958;5.842;2023-01-05T06:35:30;35.67;;;5.17;;
39020;SDS011;25188;51.958;5.842;2023-01-05T06:37:56;36.67;;;5.87;;
39020;SDS011;25188;51.958;5.842;2023-01-05T06:40:22;30.83;;;4.80;;
39020;SDS011;25188;51.958;5.842;2023-01-05T06:42:47;32.60;;;5.37;;
39020;SDS011;25188;51.958;5.842;2023-01-05T06:45:14;31.07;;;4.67;;
39020;SDS011;25188;51.958;5.842;2023-01-05T06:47:41;35.45;;;5.50;;
39020;SDS011;25188;51.958;5.842;2023-01-05T06:50:07;35.47;;;5.30;;
39020;SDS011;25188;51.958;5.842;2023-01-05T06:52:32;27.53;;;4.07;;
39020;SDS011;25188;51.958;5.842;2023-01-05T06:55:03;35.80;;;4.13;;
39020;SDS011;25188;51.958;5.842;2023-01-05T06:57:31;44.33;;;6.23;;
39020;SDS011;25188;51.958;5.842;2023-01-05T06:59:56;31.47;;;4.93;;
39020;SDS011;25188;51.958;5.842;2023-01-05T07:02:22;26.43;;;4.43;;
39020;SDS011;25188;51.958;5.842;2023-01-05T07:04:51;27.60;;;4.57;;
39020;SDS011;25188;51.958;5.842;2023-01-05T07:07:17;33.10;;;4.80;;
39020;SDS011;25188;51.958;5.842;2023-01-05T07:09:42;32.97;;;5.57;;
39020;SDS011;25188;51.958;5.842;2023-01-05T07:12:13;31.73;;;5.27;;
39020;SDS011;25188;51.958;5.842;2023-01-05T07:14:38;32.08;;;4.90;;
39020;SDS011;25188;51.958;5.842;2023-01-05T07:17:04;27.60;;;5.90;;
39020;SDS011;25188;51.958;5.842;2023-01-05T07:19:30;34.00;;;5.68;;
39020;SDS011;25188;51.958;5.842;2023-01-05T07:21:56;31.15;;;5.95;;
39020;SDS011;25188;51.958;5.842;2023-01-05T07:24:22;36.80;;;5.18;;
39020;SDS011;25188;51.958;5.842;2023-01-05T07:26:47;37.37;;;5.10;;
39020;SDS011;25188;51.958;5.842;2023-01-05T07:29:14;42.03;;;5.70;;
39020;SDS011;25188;51.958;5.842;2023-01-05T07:31:40;33.40;;;7.10;;
39020;SDS011;25188;51.958;5.842;2023-01-05T07:34:07;37.08;;;5.82;;
39020;SDS011;25188;51.958;5.842;2023-01-05T07:36:33;31.13;;;5.43;;
39020;SDS011;25188;51.958;5.842;2023-01-05T07:38:59;36.33;;;5.97;;
39020;SDS011;25188;51.958;5.842;2023-01-05T07:41:24;37.00;;;6.90;;
39020;SDS011;25188;51.958;5.842;2023-01-05T07:43:50;46.60;;;5.60;;
39020;SDS011;25188;51.958;5.842;2023-01-05T07:46:16;31.70;;;4.90;;
39020;SDS011;25188;51.958;5.842;2023-01-05T07:48:41;38.17;;;6.27;;
39020;SDS011;25188;51.958;5.842;2023-01-05T07:51:10;29.33;;;5.47;;
39020;SDS011;25188;51.958;5.842;2023-01-05T07:53:36;39.00;;;5.83;;
39020;SDS011;25188;51.958;5.842;2023-01-05T07:56:03;40.03;;;6.57;;
39020;SDS011;25188;51.958;5.842;2023-01-05T07:58:30;31.50;;;4.97;;
39020;SDS011;25188;51.958;5.842;2023-01-05T08:00:56;38.53;;;6.70;;
39020;SDS011;25188;51.958;5.842;2023-01-05T08:03:22;25.53;;;4.63;;
39020;SDS011;25188;51.958;5.842;2023-01-05T08:05:51;35.13;;;5.00;;
39020;SDS011;25188;51.958;5.842;2023-01-05T08:08:16;27.60;;;4.87;;
39020;SDS011;25188;51.958;5.842;2023-01-05T08:10:42;28.50;;;4.23;;
39020;SDS011;25188;51.958;5.842;2023-01-05T08:13:08;27.55;;;4.20;;
39020;SDS011;25188;51.958;5.842;2023-01-05T08:15:54;27.43;;;5.00;;
39020;SDS011;25188;51.958;5.842;2023-01-05T08:18:21;33.00;;;4.97;;
39020;SDS011;25188;51.958;5.842;2023-01-05T08:20:54;27.87;;;5.03;;
39020;SDS011;25188;51.958;5.842;2023-01-05T08:25:47;28.40;;;4.87;;
39020;SDS011;25188;51.958;5.842;2023-01-05T08:28:13;32.50;;;5.40;;
39020;SDS011;25188;51.958;5.842;2023-01-05T08:30:41;37.92;;;6.13;;
39020;SDS011;25188;51.958;5.842;2023-01-05T08:33:07;29.10;;;5.18;;
39020;SDS011;25188;51.958;5.842;2023-01-05T08:35:32;31.80;;;5.10;;
39020;SDS011;25188;51.958;5.842;2023-01-05T08:37:58;33.60;;;5.33;;
39020;SDS011;25188;51.958;5.842;2023-01-05T08:40:24;25.80;;;4.93;;
39020;SDS011;25188;51.958;5.842;2023-01-05T08:42:50;36.72;;;5.20;;
39020;SDS011;25188;51.958;5.842;2023-01-05T08:45:16;30.97;;;5.77;;
39020;SDS011;25188;51.958;5.842;2023-01-05T08:47:42;36.23;;;6.00;;
39020;SDS011;25188;51.958;5.842;2023-01-05T08:50:08;38.80;;;5.57;;
39020;SDS011;25188;51.958;5.842;2023-01-05T08:52:35;27.30;;;4.70;;
39020;SDS011;25188;51.958;5.842;2023-01-05T08:55:02;33.80;;;6.47;;
39020;SDS011;25188;51.958;5.842;2023-01-05T08:57:28;27.43;;;4.57;;
39020;SDS011;25188;51.958;5.842;2023-01-05T08:59:54;25.43;;;5.40;;
39020;SDS011;25188;51.958;5.842;2023-01-05T09:02:23;28.83;;;5.73;;
39020;SDS011;25188;51.958;5.842;2023-01-05T09:04:49;28.43;;;5.20;;
39020;SDS011;25188;51.958;5.842;2023-01-05T09:07:15;29.80;;;5.35;;
39020;SDS011;25188;51.958;5.842;2023-01-05T09:09:40;35.77;;;7.27;;
39020;SDS011;25188;51.958;5.842;2023-01-05T09:12:06;24.17;;;4.83;;
39020;SDS011;25188;51.958;5.842;2023-01-05T09:14:32;31.98;;;4.53;;
39020;SDS011;25188;51.958;5.842;2023-01-05T09:17:00;35.65;;;5.32;;
39020;SDS011;25188;51.958;5.842;2023-01-05T09:19:29;37.63;;;5.27;;
39020;SDS011;25188;51.958;5.842;2023-01-05T09:21:54;27.67;;;4.50;;
39020;SDS011;25188;51.958;5.842;2023-01-05T09:24:20;33.83;;;4.60;;
39020;SDS011;25188;51.958;5.842;2023-01-05T09:26:46;35.80;;;4.83;;
39020;SDS011;25188;51.958;5.842;2023-01-05T09:29:12;31.83;;;5.57;;
39020;SDS011;25188;51.958;5.842;2023-01-05T09:31:39;34.17;;;5.38;;
39020;SDS011;25188;51.958;5.842;2023-01-05T09:34:05;22.00;;;4.03;;
39020;SDS011;25188;51.958;5.842;2023-01-05T09:36:31;28.37;;;5.37;;
39020;SDS011;25188;51.958;5.842;2023-01-05T09:38:57;33.72;;;4.40;;
39020;SDS011;25188;51.958;5.842;2023-01-05T09:43:52;32.87;;;4.67;;
39020;SDS011;25188;51.958;5.842;2023-01-05T09:46:34;27.25;;;4.70;;
39020;SDS011;25188;51.958;5.842;2023-01-05T09:49:03;28.70;;;5.43;;
39020;SDS011;25188;51.958;5.842;2023-01-05T09:51:31;33.28;;;4.90;;
39020;SDS011;25188;51.958;5.842;2023-01-05T09:53:58;26.70;;;4.35;;
39020;SDS011;25188;51.958;5.842;2023-01-05T09:56:32;31.17;;;5.63;;
39020;SDS011;25188;51.958;5.842;2023-01-05T09:59:10;25.15;;;3.97;;
39020;SDS011;25188;51.958;5.842;2023-01-05T10:01:59;30.50;;;4.97;;
39020;SDS011;25188;51.958;5.842;2023-01-05T10:04:28;22.87;;;4.17;;
39020;SDS011;25188;51.958;5.842;2023-01-05T10:06:58;25.98;;;5.57;;
39020;SDS011;25188;51.958;5.842;2023-01-05T10:09:28;36.27;;;5.00;;
39020;SDS011;25188;51.958;5.842;2023-01-05T10:17:39;29.48;;;5.22;;
39020;SDS011;25188;51.958;5.842;2023-01-05T10:20:50;37.47;;;5.67;;
39020;SDS011;25188;51.958;5.842;2023-01-05T10:26:11;28.67;;;5.22;;
39020;SDS011;25188;51.958;5.842;2023-01-05T10:31:39;33.53;;;5.38;;
39020;SDS011;25188;51.958;5.842;2023-01-05T10:42:27;29.93;;;4.50;;
39020;SDS011;25188;51.958;5.842;2023-01-05T10:44:57;23.23;;;4.35;;
39020;SDS011;25188;51.958;5.842;2023-01-05T10:47:26;31.58;;;4.95;;
39020;SDS011;25188;51.958;5.842;2023-01-05T10:49:55;28.73;;;3.72;;
39020;SDS011;25188;51.958;5.842;2023-01-05T10:52:22;25.17;;;3.83;;
39020;SDS011;25188;51.958;5.842;2023-01-05T10:54:52;27.90;;;4.88;;
39020;SDS011;25188;51.958;5.842;2023-01-05T11:07:45;25.58;;;4.22;;
39020;SDS011;25188;51.958;5.842;2023-01-05T11:10:23;32.47;;;5.35;;
39020;SDS011;25188;51.958;5.842;2023-01-05T11:13:01;39.85;;;7.38;;
39020;SDS011;25188;51.958;5.842;2023-01-05T11:15:32;35.28;;;5.43;;
39020;SDS011;25188;51.958;5.842;2023-01-05T11:18:05;33.30;;;5.35;;
39020;SDS011;25188;51.958;5.842;2023-01-05T11:20:31;29.30;;;4.88;;
39020;SDS011;25188;51.958;5.842;2023-01-05T11:22:57;27.38;;;5.45;;
39020;SDS011;25188;51.958;5.842;2023-01-05T11:30:59;34.45;;;5.00;;
39020;SDS011;25188;51.958;5.842;2023-01-05T11:33:27;28.77;;;4.68;;
39020;SDS011;25188;51.958;5.842;2023-01-05T11:35:55;27.90;;;4.93;;
39020;SDS011;25188;51.958;5.842;2023-01-05T11:38:26;30.40;;;4.82;;
39020;SDS011;25188;51.958;5.842;2023-01-05T11:40:57;40.05;;;6.57;;
39020;SDS011;25188;51.958;5.842;2023-01-05T11:43:24;28.02;;;4.95;;
39020;SDS011;25188;51.958;5.842;2023-01-05T11:45:53;32.92;;;5.63;;
39020;SDS011;25188;51.958;5.842;2023-01-05T11:48:22;30.60;;;5.28;;
39020;SDS011;25188;51.958;5.842;2023-01-05T11:50:52;26.85;;;4.68;;
39020;SDS011;25188;51.958;5.842;2023-01-05T11:55:59;30.38;;;5.45;;
39020;SDS011;25188;51.958;5.842;2023-01-05T11:58:44;28.13;;;4.95;;
39020;SDS011;25188;51.958;5.842;2023-01-05T12:09:36;28.20;;;4.55;;
39020;SDS011;25188;51.958;5.842;2023-01-05T12:15:01;33.28;;;5.53;;
39020;SDS011;25188;51.958;5.842;2023-01-05T12:17:38;30.25;;;4.88;;
39020;SDS011;25188;51.958;5.842;2023-01-05T12:34:09;24.95;;;4.85;;
39020;SDS011;25188;51.958;5.842;2023-01-05T12:50:26;20.23;;;4.75;;
39020;SDS011;25188;51.958;5.842;2023-01-05T12:53:40;26.17;;;6.53;;
39020;SDS011;25188;51.958;5.842;2023-01-05T12:55:48;22.10;;;3.95;;
39020;SDS011;25188;51.958;5.842;2023-01-05T12:58:26;24.52;;;5.00;;
39020;SDS011;25188;51.958;5.842;2023-01-05T13:00:56;24.73;;;4.95;;
39020;SDS011;25188;51.958;5.842;2023-01-05T13:06:11;21.95;;;4.90;;
39020;SDS011;25188;51.958;5.842;2023-01-05T13:08:53;21.52;;;3.92;;
39020;SDS011;25188;51.958;5.842;2023-01-05T13:16:54;30.60;;;5.40;;
39020;SDS011;25188;51.958;5.842;2023-01-05T13:22:03;24.83;;;4.50;;
39020;SDS011;25188;51.958;5.842;2023-01-05T13:24:36;35.13;;;5.93;;
39020;SDS011;25188;51.958;5.842;2023-01-05T13:27:09;28.10;;;4.93;;
39020;SDS011;25188;51.958;5.842;2023-01-05T13:29:38;23.67;;;4.30;;
39020;SDS011;25188;51.958;5.842;2023-01-05T13:43:37;25.75;;;4.50;;
39020;SDS011;25188;51.958;5.842;2023-01-05T13:49:11;31.15;;;4.50;;
39020;SDS011;25188;51.958;5.842;2023-01-05T13:54:56;27.13;;;4.45;;
39020;SDS011;25188;51.958;5.842;2023-01-05T13:57:33;24.23;;;4.18;;
39020;SDS011;25188;51.958;5.842;2023-01-05T14:00:06;28.63;;;5.10;;
39020;SDS011;25188;51.958;5.842;2023-01-05T14:05:45;28.27;;;4.97;;
39020;SDS011;25188;51.958;5.842;2023-01-05T14:08:46;23.25;;;4.65;;
39020;SDS011;25188;51.958;5.842;2023-01-05T14:11:06;23.15;;;4.35;;
39020;SDS011;25188;51.958;5.842;2023-01-05T14:13:42;31.13;;;4.90;;
39020;SDS011;25188;51.958;5.842;2023-01-05T14:19:10;31.25;;;4.85;;
39020;SDS011;25188;51.958;5.842;2023-01-05T14:27:12;28.10;;;5.03;;
39020;SDS011;25188;51.958;5.842;2023-01-05T14:32:13;30.48;;;5.15;;
39020;SDS011;25188;51.958;5.842;2023-01-05T14:37:23;39.78;;;6.88;;
39020;SDS011;25188;51.958;5.842;2023-01-05T14:40:32;30.33;;;4.70;;
39020;SDS011;25188;51.958;5.842;2023-01-05T14:43:52;28.98;;;6.43;;
39020;SDS011;25188;51.958;5.842;2023-01-05T14:46:02;39.45;;;7.20;;
39020;SDS011;25188;51.958;5.842;2023-01-05T14:48:34;27.00;;;5.10;;
39020;SDS011;25188;51.958;5.842;2023-01-05T14:53:39;32.25;;;4.93;;
39020;SDS011;25188;51.958;5.842;2023-01-05T15:03:56;33.47;;;6.38;;
39020;SDS011;25188;51.958;5.842;2023-01-05T15:11:53;27.67;;;4.75;;
39020;SDS011;25188;51.958;5.842;2023-01-05T15:20:15;23.10;;;3.83;;
39020;SDS011;25188;51.958;5.842;2023-01-05T15:31:44;35.78;;;5.90;;
39020;SDS011;25188;51.958;5.842;2023-01-05T15:34:20;26.45;;;5.05;;
39020;SDS011;25188;51.958;5.842;2023-01-05T15:39:52;25.40;;;4.68;;
39020;SDS011;25188;51.958;5.842;2023-01-05T15:42:21;27.50;;;5.30;;
39020;SDS011;25188;51.958;5.842;2023-01-05T15:44:53;35.72;;;4.85;;
39020;SDS011;25188;51.958;5.842;2023-01-05T15:47:21;26.23;;;4.55;;
39020;SDS011;25188;51.958;5.842;2023-01-05T15:49:49;35.42;;;6.03;;
39020;SDS011;25188;51.958;5.842;2023-01-05T15:52:23;28.55;;;5.00;;
39020;SDS011;25188;51.958;5.842;2023-01-05T15:55:02;29.05;;;4.75;;
39020;SDS011;25188;51.958;5.842;2023-01-05T15:57:39;28.58;;;5.68;;
39020;SDS011;25188;51.958;5.842;2023-01-05T16:00:18;37.17;;;5.80;;
39020;SDS011;25188;51.958;5.842;2023-01-05T16:02:44;30.15;;;5.75;;
39020;SDS011;25188;51.958;5.842;2023-01-05T16:05:12;30.85;;;6.78;;
39020;SDS011;25188;51.958;5.842;2023-01-05T16:10:37;22.23;;;4.13;;
39020;SDS011;25188;51.958;5.842;2023-01-05T16:13:11;30.65;;;6.18;;
39020;SDS011;25188;51.958;5.842;2023-01-05T16:15:40;37.72;;;7.13;;
39020;SDS011;25188;51.958;5.842;2023-01-05T16:18:11;27.88;;;6.45;;
39020;SDS011;25188;51.958;5.842;2023-01-05T16:20:40;32.22;;;6.60;;
39020;SDS011;25188;51.958;5.842;2023-01-05T16:26:02;27.70;;;5.18;;
39020;SDS011;25188;51.958;5.842;2023-01-05T16:28:27;28.10;;;5.60;;
39020;SDS011;25188;51.958;5.842;2023-01-05T16:30:53;29.88;;;6.18;;
39020;SDS011;25188;51.958;5.842;2023-01-05T16:38:32;28.85;;;4.50;;
39020;SDS011;25188;51.958;5.842;2023-01-05T16:43:33;31.17;;;5.00;;
39020;SDS011;25188;51.958;5.842;2023-01-05T16:51:11;23.67;;;4.37;;
39020;SDS011;25188;51.958;5.842;2023-01-05T16:53:58;29.87;;;4.63;;
39020;SDS011;25188;51.958;5.842;2023-01-05T16:59:00;21.07;;;4.00;;
39020;SDS011;25188;51.958;5.842;2023-01-05T17:04:10;27.92;;;6.25;;
39020;SDS011;25188;51.958;5.842;2023-01-05T17:06:40;21.77;;;5.00;;
39020;SDS011;25188;51.958;5.842;2023-01-05T17:09:18;25.83;;;4.87;;
39020;SDS011;25188;51.958;5.842;2023-01-05T17:11:55;27.33;;;5.47;;
39020;SDS011;25188;51.958;5.842;2023-01-05T17:14:21;25.77;;;5.90;;
39020;SDS011;25188;51.958;5.842;2023-01-05T17:16:48;25.67;;;6.17;;
39020;SDS011;25188;51.958;5.842;2023-01-05T17:19:14;27.83;;;7.33;;
39020;SDS011;25188;51.958;5.842;2023-01-05T17:21:42;32.37;;;7.47;;
39020;SDS011;25188;51.958;5.842;2023-01-05T17:24:16;26.60;;;6.67;;
39020;SDS011;25188;51.958;5.842;2023-01-05T17:26:42;29.83;;;7.73;;
39020;SDS011;25188;51.958;5.842;2023-01-05T17:29:25;27.92;;;6.60;;
39020;SDS011;25188;51.958;5.842;2023-01-05T17:31:51;28.03;;;8.00;;
39020;SDS011;25188;51.958;5.842;2023-01-05T17:34:17;36.47;;;9.03;;
39020;SDS011;25188;51.958;5.842;2023-01-05T17:36:43;36.95;;;9.00;;
39020;SDS011;25188;51.958;5.842;2023-01-05T17:39:14;30.92;;;8.23;;
39020;SDS011;25188;51.958;5.842;2023-01-05T17:41:42;31.97;;;8.40;;
39020;SDS011;25188;51.958;5.842;2023-01-05T17:44:07;31.25;;;8.60;;
39020;SDS011;25188;51.958;5.842;2023-01-05T17:46:35;30.10;;;9.47;;
39020;SDS011;25188;51.958;5.842;2023-01-05T17:49:04;27.53;;;9.10;;
39020;SDS011;25188;51.958;5.842;2023-01-05T17:51:30;34.25;;;9.35;;
39020;SDS011;25188;51.958;5.842;2023-01-05T17:53:56;26.35;;;8.88;;
39020;SDS011;25188;51.958;5.842;2023-01-05T17:56:22;30.33;;;9.10;;
39020;SDS011;25188;51.958;5.842;2023-01-05T17:58:48;23.93;;;8.20;;
39020;SDS011;25188;51.958;5.842;2023-01-05T18:01:14;28.20;;;8.63;;
39020;SDS011;25188;51.958;5.842;2023-01-05T18:03:39;21.27;;;8.30;;
39020;SDS011;25188;51.958;5.842;2023-01-05T18:06:05;26.33;;;9.63;;
39020;SDS011;25188;51.958;5.842;2023-01-05T18:08:33;33.03;;;11.15;;
39020;SDS011;25188;51.958;5.842;2023-01-05T18:11:00;30.60;;;10.90;;
39020;SDS011;25188;51.958;5.842;2023-01-05T18:13:27;30.30;;;10.67;;
39020;SDS011;25188;51.958;5.842;2023-01-05T18:15:53;34.75;;;10.93;;
39020;SDS011;25188;51.958;5.842;2023-01-05T18:18:20;28.57;;;11.77;;
39020;SDS011;25188;51.958;5.842;2023-01-05T18:20:47;29.50;;;11.93;;